sensor_id;sensor_type;location;lat;lon;timestamp;temperature;humidity
16283;DHT22;8249;48.708;9.030;2023-09-08T00:00:49;15.40;99.90
16283;DHT22;8249;48.708;9.030;2023-09-08T00:03:16;15.40;99.90
16283;DHT22;8249;48.708;9.030;2023-09-08T00:05:42;15.30;99.90
16283;DHT22;8249;48.708;9.030;2023-09-08T00:08:09;15.30;99.90
16283;DHT22;8249;48.708;9.030;2023-09-08T00:10:37;15.30;99.90
16283;DHT22;8249;48.708;9.030;2023-09-08T00:13:05;15.30;99.90
16283;DHT22;8249;48.708;9.030;2023-09-08T00:15:33;15.30;99.90
16283;DHT22;8249;48.708;9.030;2023-09-08T00:18:01;15.30;99.90
16283;DHT22;8249;48.708;9.030;2023-09-08T00:20:28;15.20;99.90
16283;DHT22;8249;48.708;9.030;2023-09-08T00:22:55;15.20;99.90
16283;DHT22;8249;48.708;9.030;2023-09-08T00:25:21;15.20;99.90
16283;DHT22;8249;48.708;9.030;2023-09-08T00:27:48;15.20;99.90
16283;DHT22;8249;48.708;9.030;2023-09-08T00:30:17;15.10;99.90
16283;DHT22;8249;48.708;9.030;2023-09-08T00:32:43;15.10;99.90
16283;DHT22;8249;48.708;9.030;2023-09-08T00:35:11;15.10;99.90
16283;DHT22;8249;48.708;9.030;2023-09-08T00:37:39;15.10;99.90
16283;DHT22;8249;48.708;9.030;2023-09-08T00:40:07;15.10;99.90
16283;DHT22;8249;48.708;9.030;2023-09-08T00:42:35;15.10;99.90
16283;DHT22;8249;48.708;9.030;2023-09-08T00:45:02;15.10;99.90
16283;DHT22;8249;48.708;9.030;2023-09-08T00:47:30;15.00;99.90
16283;DHT22;8249;48.708;9.030;2023-09-08T00:49:57;15.00;99.90
16283;DHT22;8249;48.708;9.030;2023-09-08T00:52:24;15.00;99.90
16283;DHT22;8249;48.708;9.030;2023-09-08T00:54:56;14.90;99.90
16283;DHT22;8249;48.708;9.030;2023-09-08T00:57:23;14.90;99.90
16283;DHT22;8249;48.708;9.030;2023-09-08T00:59:51;14.90;99.90
16283;DHT22;8249;48.708;9.030;2023-09-08T01:02:17;14.90;99.90
16283;DHT22;8249;48.708;9.030;2023-09-08T01:04:46;14.80;99.90
16283;DHT22;8249;48.708;9.030;2023-09-08T01:07:14;14.80;99.90
16283;DHT22;8249;48.708;9.030;2023-09-08T01:09:42;14.80;99.90
16283;DHT22;8249;48.708;9.030;2023-09-08T01:12:09;14.80;99.90
16283;DHT22;8249;48.708;9.030;2023-09-08T01:14:36;14.70;99.90
16283;DHT22;8249;48.708;9.030;2023-09-08T01:17:04;14.80;99.90
16283;DHT22;8249;48.708;9.030;2023-09-08T01:19:31;14.70;99.90
16283;DHT22;8249;48.708;9.030;2023-09-08T01:22:30;14.70;99.90
16283;DHT22;8249;48.708;9.030;2023-09-08T01:25:31;14.70;99.90
16283;DHT22;8249;48.708;9.030;2023-09-08T01:28:01;14.60;99.90
16283;DHT22;8249;48.708;9.030;2023-09-08T01:30:30;14.60;99.90
16283;DHT22;8249;48.708;9.030;2023-09-08T01:32:58;14.60;99.90
16283;DHT22;8249;48.708;9.030;2023-09-08T01:35:26;14.50;99.90
16283;DHT22;8249;48.708;9.030;2023-09-08T01:37:53;14.60;99.90
16283;DHT22;8249;48.708;9.030;2023-09-08T01:40:20;14.60;99.90
16283;DHT22;8249;48.708;9.030;2023-09-08T01:42:48;14.60;99.90
16283;DHT22;8249;48.708;9.030;2023-09-08T01:45:15;14.60;99.90
16283;DHT22;8249;48.708;9.030;2023-09-08T01:47:42;14.60;99.90
16283;DHT22;8249;48.708;9.030;2023-09-08T01:50:09;14.50;99.90
16283;DHT22;8249;48.708;9.030;2023-09-08T01:52:36;14.60;99.90
16283;DHT22;8249;48.708;9.030;2023-09-08T01:55:04;14.50;99.90
16283;DHT22;8249;48.708;9.030;2023-09-08T01:57:32;14.60;99.90
16283;DHT22;8249;48.708;9.030;2023-09-08T02:00:00;14.50;99.90
16283;DHT22;8249;48.708;9.030;2023-09-08T02:02:27;14.50;99.90
16283;DHT22;8249;48.708;9.030;2023-09-08T02:04:54;14.40;99.90
16283;DHT22;8249;48.708;9.030;2023-09-08T02:07:21;14.40;99.90
16283;DHT22;8249;48.708;9.030;2023-09-08T02:09:50;14.30;99.90
16283;DHT22;8249;48.708;9.030;2023-09-08T02:12:19;14.30;99.90
16283;DHT22;8249;48.708;9.030;2023-09-08T02:14:46;14.20;99.90
16283;DHT22;8249;48.708;9.030;2023-09-08T02:17:14;14.20;99.90
16283;DHT22;8249;48.708;9.030;2023-09-08T02:19:41;14.20;99.90
16283;DHT22;8249;48.708;9.030;2023-09-08T02:22:09;14.20;99.90
16283;DHT22;8249;48.708;9.030;2023-09-08T02:24:36;14.10;99.90
16283;DHT22;8249;48.708;9.030;2023-09-08T02:27:03;14.10;99.90
16283;DHT22;8249;48.708;9.030;2023-09-08T02:29:31;14.10;99.90
16283;DHT22;8249;48.708;9.030;2023-09-08T02:31:58;14.10;99.90
16283;DHT22;8249;48.708;9.030;2023-09-08T02:34:26;14.10;99.90
16283;DHT22;8249;48.708;9.030;2023-09-08T02:36:53;14.00;99.90
16283;DHT22;8249;48.708;9.030;2023-09-08T02:39:23;14.00;99.90
16283;DHT22;8249;48.708;9.030;2023-09-08T02:41:52;14.00;99.90
16283;DHT22;8249;48.708;9.030;2023-09-08T02:44:20;14.00;99.90
16283;DHT22;8249;48.708;9.030;2023-09-08T02:46:48;14.00;99.90
16283;DHT22;8249;48.708;9.030;2023-09-08T02:49:15;13.90;99.90
16283;DHT22;8249;48.708;9.030;2023-09-08T02:51:43;13.90;99.90
16283;DHT22;8249;48.708;9.030;2023-09-08T02:54:10;14.00;99.90
16283;DHT22;8249;48.708;9.030;2023-09-08T02:56:37;14.00;99.90
16283;DHT22;8249;48.708;9.030;2023-09-08T02:59:04;13.90;99.90
16283;DHT22;8249;48.708;9.030;2023-09-08T03:01:31;13.90;99.90
16283;DHT22;8249;48.708;9.030;2023-09-08T03:03:57;13.90;99.90
16283;DHT22;8249;48.708;9.030;2023-09-08T03:06:24;13.90;99.90
16283;DHT22;8249;48.708;9.030;2023-09-08T03:08:53;13.90;99.90
16283;DHT22;8249;48.708;9.030;2023-09-08T03:11:20;13.90;99.90
16283;DHT22;8249;48.708;9.030;2023-09-08T03:13:47;13.80;99.90
16283;DHT22;8249;48.708;9.030;2023-09-08T03:16:14;13.80;99.90
16283;DHT22;8249;48.708;9.030;2023-09-08T03:18:41;13.80;99.90
16283;DHT22;8249;48.708;9.030;2023-09-08T03:21:08;13.80;99.90
16283;DHT22;8249;48.708;9.030;2023-09-08T03:23:38;13.70;99.90
16283;DHT22;8249;48.708;9.030;2023-09-08T03:26:07;13.80;99.90
16283;DHT22;8249;48.708;9.030;2023-09-08T03:28:35;13.70;99.90
16283;DHT22;8249;48.708;9.030;2023-09-08T03:31:02;13.70;99.90
16283;DHT22;8249;48.708;9.030;2023-09-08T03:33:32;13.70;99.90
16283;DHT22;8249;48.708;9.030;2023-09-08T03:35:59;13.70;99.90
16283;DHT22;8249;48.708;9.030;2023-09-08T03:38:27;13.70;99.90
16283;DHT22;8249;48.708;9.030;2023-09-08T03:40:54;13.60;99.90
16283;DHT22;8249;48.708;9.030;2023-09-08T03:43:22;13.60;99.90
16283;DHT22;8249;48.708;9.030;2023-09-08T03:45:49;13.60;99.90
16283;DHT22;8249;48.708;9.030;2023-09-08T03:48:16;13.60;99.90
16283;DHT22;8249;48.708;9.030;2023-09-08T03:50:44;13.50;99.90
16283;DHT22;8249;48.708;9.030;2023-09-08T03:53:11;13.50;99.90
16283;DHT22;8249;48.708;9.030;2023-09-08T03:55:38;13.50;99.90
16283;DHT22;8249;48.708;9.030;2023-09-08T03:58:05;13.50;99.90
16283;DHT22;8249;48.708;9.030;2023-09-08T04:00:34;13.50;99.90
16283;DHT22;8249;48.708;9.030;2023-09-08T04:03:01;13.50;99.90
16283;DHT22;8249;48.708;9.030;2023-09-08T04:05:29;13.50;99.90
16283;DHT22;8249;48.708;9.030;2023-09-08T04:07:56;13.40;99.90
16283;DHT22;8249;48.708;9.030;2023-09-08T04:10:22;13.40;99.90
16283;DHT22;8249;48.708;9.030;2023-09-08T04:12:50;13.40;99.90
16283;DHT22;8249;48.708;9.030;2023-09-08T04:15:17;13.40;99.90
16283;DHT22;8249;48.708;9.030;2023-09-08T04:17:45;13.40;99.90
16283;DHT22;8249;48.708;9.030;2023-09-08T04:20:12;13.40;99.90
16283;DHT22;8249;48.708;9.030;2023-09-08T04:22:41;13.40;99.90
16283;DHT22;8249;48.708;9.030;2023-09-08T04:25:08;13.40;99.90
16283;DHT22;8249;48.708;9.030;2023-09-08T04:27:36;13.40;99.90
16283;DHT22;8249;48.708;9.030;2023-09-08T04:30:03;13.40;99.90
16283;DHT22;8249;48.708;9.030;2023-09-08T04:32:30;13.40;99.90
16283;DHT22;8249;48.708;9.030;2023-09-08T04:34:59;13.40;99.90
16283;DHT22;8249;48.708;9.030;2023-09-08T04:37:26;13.40;99.90
16283;DHT22;8249;48.708;9.030;2023-09-08T04:39:52;13.40;99.90
16283;DHT22;8249;48.708;9.030;2023-09-08T04:42:19;13.40;99.90
16283;DHT22;8249;48.708;9.030;2023-09-08T04:44:46;13.40;99.90
16283;DHT22;8249;48.708;9.030;2023-09-08T04:47:13;13.30;99.90
16283;DHT22;8249;48.708;9.030;2023-09-08T04:49:40;13.30;99.90
16283;DHT22;8249;48.708;9.030;2023-09-08T04:52:09;13.30;99.90
16283;DHT22;8249;48.708;9.030;2023-09-08T04:54:37;13.30;99.90
16283;DHT22;8249;48.708;9.030;2023-09-08T04:57:05;13.40;99.90
16283;DHT22;8249;48.708;9.030;2023-09-08T04:59:32;13.40;99.90
16283;DHT22;8249;48.708;9.030;2023-09-08T05:01:59;13.40;99.90
16283;DHT22;8249;48.708;9.030;2023-09-08T05:04:26;13.40;99.90
16283;DHT22;8249;48.708;9.030;2023-09-08T05:06:53;13.40;99.90
16283;DHT22;8249;48.708;9.030;2023-09-08T05:09:21;13.40;99.90
16283;DHT22;8249;48.708;9.030;2023-09-08T05:11:48;13.50;99.90
16283;DHT22;8249;48.708;9.030;2023-09-08T05:14:15;13.50;99.90
16283;DHT22;8249;48.708;9.030;2023-09-08T05:16:42;13.60;99.90
16283;DHT22;8249;48.708;9.030;2023-09-08T05:19:15;13.60;99.90
16283;DHT22;8249;48.708;9.030;2023-09-08T05:21:42;13.60;99.90
16283;DHT22;8249;48.708;9.030;2023-09-08T05:24:09;13.60;99.90
16283;DHT22;8249;48.708;9.030;2023-09-08T05:26:38;13.70;99.90
16283;DHT22;8249;48.708;9.030;2023-09-08T05:29:05;13.70;99.90
16283;DHT22;8249;48.708;9.030;2023-09-08T05:31:32;13.80;99.90
16283;DHT22;8249;48.708;9.030;2023-09-08T05:33:59;13.80;99.90
16283;DHT22;8249;48.708;9.030;2023-09-08T05:36:27;13.90;99.90
16283;DHT22;8249;48.708;9.030;2023-09-08T05:38:55;13.80;99.90
16283;DHT22;8249;48.708;9.030;2023-09-08T05:41:22;13.90;99.90
16283;DHT22;8249;48.708;9.030;2023-09-08T05:43:51;13.90;99.90
16283;DHT22;8249;48.708;9.030;2023-09-08T05:46:17;13.90;99.90
16283;DHT22;8249;48.708;9.030;2023-09-08T05:48:45;14.00;99.90
16283;DHT22;8249;48.708;9.030;2023-09-08T05:51:13;14.10;99.90
16283;DHT22;8249;48.708;9.030;2023-09-08T05:53:41;14.20;99.90
16283;DHT22;8249;48.708;9.030;2023-09-08T05:56:08;14.30;99.90
16283;DHT22;8249;48.708;9.030;2023-09-08T05:58:36;14.40;99.90
16283;DHT22;8249;48.708;9.030;2023-09-08T06:01:04;14.50;99.90
16283;DHT22;8249;48.708;9.030;2023-09-08T06:03:33;14.60;99.90
16283;DHT22;8249;48.708;9.030;2023-09-08T06:06:01;14.70;99.90
16283;DHT22;8249;48.708;9.030;2023-09-08T06:08:27;14.80;99.90
16283;DHT22;8249;48.708;9.030;2023-09-08T06:10:55;15.00;99.90
16283;DHT22;8249;48.708;9.030;2023-09-08T06:13:23;15.10;99.90
16283;DHT22;8249;48.708;9.030;2023-09-08T06:15:51;15.30;99.90
16283;DHT22;8249;48.708;9.030;2023-09-08T06:18:19;15.50;99.90
16283;DHT22;8249;48.708;9.030;2023-09-08T06:20:47;15.60;99.90
16283;DHT22;8249;48.708;9.030;2023-09-08T06:23:14;15.80;99.90
16283;DHT22;8249;48.708;9.030;2023-09-08T06:25:42;16.00;99.90
16283;DHT22;8249;48.708;9.030;2023-09-08T06:28:09;16.10;99.90
16283;DHT22;8249;48.708;9.030;2023-09-08T06:30:37;16.30;99.90
16283;DHT22;8249;48.708;9.030;2023-09-08T06:33:08;16.40;99.90
16283;DHT22;8249;48.708;9.030;2023-09-08T06:35:36;16.60;99.90
16283;DHT22;8249;48.708;9.030;2023-09-08T06:38:03;16.80;99.90
16283;DHT22;8249;48.708;9.030;2023-09-08T06:40:30;16.90;99.90
16283;DHT22;8249;48.708;9.030;2023-09-08T06:42:57;17.10;99.90
16283;DHT22;8249;48.708;9.030;2023-09-08T06:45:37;17.20;99.90
16283;DHT22;8249;48.708;9.030;2023-09-08T06:48:05;17.40;99.90
16283;DHT22;8249;48.708;9.030;2023-09-08T06:50:32;17.60;99.90
16283;DHT22;8249;48.708;9.030;2023-09-08T06:53:00;17.70;99.90
16283;DHT22;8249;48.708;9.030;2023-09-08T06:55:27;18.00;99.90
16283;DHT22;8249;48.708;9.030;2023-09-08T06:57:54;18.10;99.90
16283;DHT22;8249;48.708;9.030;2023-09-08T07:00:21;18.30;99.90
16283;DHT22;8249;48.708;9.030;2023-09-08T07:02:48;18.50;99.90
16283;DHT22;8249;48.708;9.030;2023-09-08T07:05:16;18.80;99.90
16283;DHT22;8249;48.708;9.030;2023-09-08T07:07:43;19.00;99.90
16283;DHT22;8249;48.708;9.030;2023-09-08T07:10:12;19.20;99.90
16283;DHT22;8249;48.708;9.030;2023-09-08T07:12:40;19.30;99.90
16283;DHT22;8249;48.708;9.030;2023-09-08T07:15:08;19.50;99.90
16283;DHT22;8249;48.708;9.030;2023-09-08T07:17:35;19.70;99.90
16283;DHT22;8249;48.708;9.030;2023-09-08T07:20:04;20.00;99.90
16283;DHT22;8249;48.708;9.030;2023-09-08T07:22:31;20.10;99.90
16283;DHT22;8249;48.708;9.030;2023-09-08T07:24:58;20.40;99.90
16283;DHT22;8249;48.708;9.030;2023-09-08T07:27:26;20.60;99.90
16283;DHT22;8249;48.708;9.030;2023-09-08T07:29:54;20.90;99.90
16283;DHT22;8249;48.708;9.030;2023-09-08T07:32:21;21.00;99.90
16283;DHT22;8249;48.708;9.030;2023-09-08T07:34:47;21.10;99.90
16283;DHT22;8249;48.708;9.030;2023-09-08T07:37:20;21.30;99.90
16283;DHT22;8249;48.708;9.030;2023-09-08T07:39:48;21.60;99.90
16283;DHT22;8249;48.708;9.030;2023-09-08T07:42:15;21.80;99.90
16283;DHT22;8249;48.708;9.030;2023-09-08T07:44:44;22.00;99.90
16283;DHT22;8249;48.708;9.030;2023-09-08T07:47:11;22.30;99.90
16283;DHT22;8249;48.708;9.030;2023-09-08T07:49:38;22.50;99.90
16283;DHT22;8249;48.708;9.030;2023-09-08T07:52:05;22.60;99.90
16283;DHT22;8249;48.708;9.030;2023-09-08T07:54:33;22.70;99.90
16283;DHT22;8249;48.708;9.030;2023-09-08T07:56:59;22.90;99.90
16283;DHT22;8249;48.708;9.030;2023-09-08T07:59:26;23.00;99.90
16283;DHT22;8249;48.708;9.030;2023-09-08T08:01:55;23.20;99.90
16283;DHT22;8249;48.708;9.030;2023-09-08T08:04:22;23.50;99.90
16283;DHT22;8249;48.708;9.030;2023-09-08T08:06:48;23.70;99.90
16283;DHT22;8249;48.708;9.030;2023-09-08T08:09:15;24.10;99.90
16283;DHT22;8249;48.708;9.030;2023-09-08T08:11:42;24.30;99.90
16283;DHT22;8249;48.708;9.030;2023-09-08T08:14:09;24.50;99.90
16283;DHT22;8249;48.708;9.030;2023-09-08T08:16:36;24.90;99.90
16283;DHT22;8249;48.708;9.030;2023-09-08T08:19:04;25.20;99.90
16283;DHT22;8249;48.708;9.030;2023-09-08T08:21:31;25.60;99.90
16283;DHT22;8249;48.708;9.030;2023-09-08T08:23:58;26.20;99.90
16283;DHT22;8249;48.708;9.030;2023-09-08T08:26:25;26.20;99.90
16283;DHT22;8249;48.708;9.030;2023-09-08T08:28:55;26.60;99.90
16283;DHT22;8249;48.708;9.030;2023-09-08T08:31:22;26.80;99.90
16283;DHT22;8249;48.708;9.030;2023-09-08T08:33:49;27.20;99.90
16283;DHT22;8249;48.708;9.030;2023-09-08T08:36:18;27.50;99.90
16283;DHT22;8249;48.708;9.030;2023-09-08T08:38:45;28.10;99.90
16283;DHT22;8249;48.708;9.030;2023-09-08T08:41:12;28.20;99.90
16283;DHT22;8249;48.708;9.030;2023-09-08T08:43:38;28.20;99.90
16283;DHT22;8249;48.708;9.030;2023-09-08T08:46:06;28.40;99.90
16283;DHT22;8249;48.708;9.030;2023-09-08T08:48:33;28.70;99.90
16283;DHT22;8249;48.708;9.030;2023-09-08T08:51:00;29.10;99.90
16283;DHT22;8249;48.708;9.030;2023-09-08T08:53:31;29.50;99.90
16283;DHT22;8249;48.708;9.030;2023-09-08T08:55:59;29.50;99.90
16283;DHT22;8249;48.708;9.030;2023-09-08T08:58:27;29.80;99.90
16283;DHT22;8249;48.708;9.030;2023-09-08T09:00:54;29.90;99.90
16283;DHT22;8249;48.708;9.030;2023-09-08T09:03:25;29.90;99.90
16283;DHT22;8249;48.708;9.030;2023-09-08T09:05:53;30.10;99.90
16283;DHT22;8249;48.708;9.030;2023-09-08T09:08:20;30.50;99.90
16283;DHT22;8249;48.708;9.030;2023-09-08T09:10:50;30.50;99.90
16283;DHT22;8249;48.708;9.030;2023-09-08T09:13:17;30.70;99.90
16283;DHT22;8249;48.708;9.030;2023-09-08T09:15:44;30.90;99.90
16283;DHT22;8249;48.708;9.030;2023-09-08T09:18:12;30.90;99.90
16283;DHT22;8249;48.708;9.030;2023-09-08T09:20:39;31.20;99.90
16283;DHT22;8249;48.708;9.030;2023-09-08T09:23:07;31.30;99.90
16283;DHT22;8249;48.708;9.030;2023-09-08T09:25:33;31.80;99.90
16283;DHT22;8249;48.708;9.030;2023-09-08T09:28:03;31.90;99.90
16283;DHT22;8249;48.708;9.030;2023-09-08T09:30:46;32.30;99.90
16283;DHT22;8249;48.708;9.030;2023-09-08T09:33:15;32.70;99.90
16283;DHT22;8249;48.708;9.030;2023-09-08T09:35:43;33.10;99.90
16283;DHT22;8249;48.708;9.030;2023-09-08T09:38:11;33.50;99.40
16283;DHT22;8249;48.708;9.030;2023-09-08T09:40:39;33.40;98.40
16283;DHT22;8249;48.708;9.030;2023-09-08T09:43:08;33.60;99.10
16283;DHT22;8249;48.708;9.030;2023-09-08T09:45:38;33.70;97.60
16283;DHT22;8249;48.708;9.030;2023-09-08T09:48:06;33.60;97.00
16283;DHT22;8249;48.708;9.030;2023-09-08T09:50:35;33.60;96.60
16283;DHT22;8249;48.708;9.030;2023-09-08T09:53:08;33.60;96.80
16283;DHT22;8249;48.708;9.030;2023-09-08T09:55:37;33.70;96.40
16283;DHT22;8249;48.708;9.030;2023-09-08T09:58:07;33.40;95.40
16283;DHT22;8249;48.708;9.030;2023-09-08T10:00:36;33.60;96.10
16283;DHT22;8249;48.708;9.030;2023-09-08T10:03:04;34.00;95.90
16283;DHT22;8249;48.708;9.030;2023-09-08T10:05:31;34.10;95.00
16283;DHT22;8249;48.708;9.030;2023-09-08T10:07:58;34.40;95.70
16283;DHT22;8249;48.708;9.030;2023-09-08T10:10:27;34.70;93.40
16283;DHT22;8249;48.708;9.030;2023-09-08T10:12:59;34.30;93.20
16283;DHT22;8249;48.708;9.030;2023-09-08T10:15:28;34.20;93.10
16283;DHT22;8249;48.708;9.030;2023-09-08T10:17:57;34.70;92.80
16283;DHT22;8249;48.708;9.030;2023-09-08T10:20:26;34.70;92.20
16283;DHT22;8249;48.708;9.030;2023-09-08T10:25:59;34.30;92.00
16283;DHT22;8249;48.708;9.030;2023-09-08T10:28:30;34.50;92.80
16283;DHT22;8249;48.708;9.030;2023-09-08T10:31:00;35.10;91.30
16283;DHT22;8249;48.708;9.030;2023-09-08T10:33:28;35.40;91.50
16283;DHT22;8249;48.708;9.030;2023-09-08T10:35:55;35.60;89.80
16283;DHT22;8249;48.708;9.030;2023-09-08T10:38:25;35.50;89.00
16283;DHT22;8249;48.708;9.030;2023-09-08T10:40:52;35.20;89.70
16283;DHT22;8249;48.708;9.030;2023-09-08T10:43:19;35.50;88.60
16283;DHT22;8249;48.708;9.030;2023-09-08T10:45:47;35.70;88.00
16283;DHT22;8249;48.708;9.030;2023-09-08T10:48:15;36.10;89.80
16283;DHT22;8249;48.708;9.030;2023-09-08T10:50:42;36.40;87.30
16283;DHT22;8249;48.708;9.030;2023-09-08T10:53:13;36.80;87.90
16283;DHT22;8249;48.708;9.030;2023-09-08T10:55:44;37.10;84.00
16283;DHT22;8249;48.708;9.030;2023-09-08T10:58:18;36.90;82.70
16283;DHT22;8249;48.708;9.030;2023-09-08T11:00:47;36.80;83.50
16283;DHT22;8249;48.708;9.030;2023-09-08T11:03:26;36.50;82.90
16283;DHT22;8249;48.708;9.030;2023-09-08T11:05:54;36.60;82.60
16283;DHT22;8249;48.708;9.030;2023-09-08T11:08:22;36.80;81.10
16283;DHT22;8249;48.708;9.030;2023-09-08T11:10:49;36.60;80.00
16283;DHT22;8249;48.708;9.030;2023-09-08T11:13:16;36.60;80.00
16283;DHT22;8249;48.708;9.030;2023-09-08T11:15:43;36.70;79.90
16283;DHT22;8249;48.708;9.030;2023-09-08T11:18:10;36.50;79.40
16283;DHT22;8249;48.708;9.030;2023-09-08T11:20:38;36.30;81.10
16283;DHT22;8249;48.708;9.030;2023-09-08T11:23:05;36.10;81.60
16283;DHT22;8249;48.708;9.030;2023-09-08T11:25:33;36.50;81.00
16283;DHT22;8249;48.708;9.030;2023-09-08T11:28:01;36.60;80.90
16283;DHT22;8249;48.708;9.030;2023-09-08T11:30:28;36.90;78.70
16283;DHT22;8249;48.708;9.030;2023-09-08T11:32:55;37.00;77.10
16283;DHT22;8249;48.708;9.030;2023-09-08T11:35:27;37.00;77.40
16283;DHT22;8249;48.708;9.030;2023-09-08T11:38:00;37.10;77.00
16283;DHT22;8249;48.708;9.030;2023-09-08T11:40:30;36.90;76.40
16283;DHT22;8249;48.708;9.030;2023-09-08T11:42:58;37.00;78.00
16283;DHT22;8249;48.708;9.030;2023-09-08T11:45:25;37.60;76.60
16283;DHT22;8249;48.708;9.030;2023-09-08T11:47:53;38.10;77.70
16283;DHT22;8249;48.708;9.030;2023-09-08T11:50:22;38.50;76.30
16283;DHT22;8249;48.708;9.030;2023-09-08T11:52:50;38.80;74.60
16283;DHT22;8249;48.708;9.030;2023-09-08T11:55:20;39.00;74.50
16283;DHT22;8249;48.708;9.030;2023-09-08T11:57:49;39.10;72.70
16283;DHT22;8249;48.708;9.030;2023-09-08T12:00:18;38.70;71.70
16283;DHT22;8249;48.708;9.030;2023-09-08T12:02:48;38.60;74.00
16283;DHT22;8249;48.708;9.030;2023-09-08T12:05:21;39.10;74.90
16283;DHT22;8249;48.708;9.030;2023-09-08T12:07:48;39.30;73.20
16283;DHT22;8249;48.708;9.030;2023-09-08T12:10:16;39.30;72.60
16283;DHT22;8249;48.708;9.030;2023-09-08T12:12:46;39.00;72.00
16283;DHT22;8249;48.708;9.030;2023-09-08T12:15:31;38.30;74.60
16283;DHT22;8249;48.708;9.030;2023-09-08T12:17:59;38.50;77.00
16283;DHT22;8249;48.708;9.030;2023-09-08T12:20:26;38.60;75.80
16283;DHT22;8249;48.708;9.030;2023-09-08T12:22:53;39.00;76.80
16283;DHT22;8249;48.708;9.030;2023-09-08T12:25:20;39.30;76.10
16283;DHT22;8249;48.708;9.030;2023-09-08T12:27:51;39.30;74.40
16283;DHT22;8249;48.708;9.030;2023-09-08T12:30:18;39.50;75.10
16283;DHT22;8249;48.708;9.030;2023-09-08T12:32:47;39.90;74.80
16283;DHT22;8249;48.708;9.030;2023-09-08T12:35:20;40.10;74.60
16283;DHT22;8249;48.708;9.030;2023-09-08T12:37:59;40.30;74.10
16283;DHT22;8249;48.708;9.030;2023-09-08T12:40:26;40.30;72.50
16283;DHT22;8249;48.708;9.030;2023-09-08T12:42:55;40.20;74.30
16283;DHT22;8249;48.708;9.030;2023-09-08T12:45:25;40.30;72.80
16283;DHT22;8249;48.708;9.030;2023-09-08T12:47:53;40.30;71.50
16283;DHT22;8249;48.708;9.030;2023-09-08T12:50:20;40.20;71.50
16283;DHT22;8249;48.708;9.030;2023-09-08T12:52:47;40.00;71.70
16283;DHT22;8249;48.708;9.030;2023-09-08T12:55:14;39.90;72.40
16283;DHT22;8249;48.708;9.030;2023-09-08T12:57:41;39.90;72.20
16283;DHT22;8249;48.708;9.030;2023-09-08T13:00:11;39.90;71.90
16283;DHT22;8249;48.708;9.030;2023-09-08T13:02:38;39.70;71.10
16283;DHT22;8249;48.708;9.030;2023-09-08T13:05:05;39.80;72.30
16283;DHT22;8249;48.708;9.030;2023-09-08T13:07:33;39.60;70.20
16283;DHT22;8249;48.708;9.030;2023-09-08T13:10:01;39.30;71.50
16283;DHT22;8249;48.708;9.030;2023-09-08T13:12:28;39.30;72.00
16283;DHT22;8249;48.708;9.030;2023-09-08T13:14:56;39.20;72.20
16283;DHT22;8249;48.708;9.030;2023-09-08T13:17:25;39.10;71.10
16283;DHT22;8249;48.708;9.030;2023-09-08T13:19:52;39.50;70.80
16283;DHT22;8249;48.708;9.030;2023-09-08T13:22:20;39.70;70.70
16283;DHT22;8249;48.708;9.030;2023-09-08T13:24:47;39.80;71.00
16283;DHT22;8249;48.708;9.030;2023-09-08T13:27:14;40.00;70.60
16283;DHT22;8249;48.708;9.030;2023-09-08T13:29:43;39.90;70.10
16283;DHT22;8249;48.708;9.030;2023-09-08T13:32:10;39.70;69.50
16283;DHT22;8249;48.708;9.030;2023-09-08T13:34:38;39.80;70.50
16283;DHT22;8249;48.708;9.030;2023-09-08T13:37:06;39.90;69.90
16283;DHT22;8249;48.708;9.030;2023-09-08T13:39:33;40.00;69.30
16283;DHT22;8249;48.708;9.030;2023-09-08T13:42:01;40.00;70.40
16283;DHT22;8249;48.708;9.030;2023-09-08T13:44:28;40.10;70.20
16283;DHT22;8249;48.708;9.030;2023-09-08T13:46:56;40.40;68.80
16283;DHT22;8249;48.708;9.030;2023-09-08T13:49:23;40.20;69.80
16283;DHT22;8249;48.708;9.030;2023-09-08T13:51:51;40.40;67.20
16283;DHT22;8249;48.708;9.030;2023-09-08T13:54:19;40.30;69.50
16283;DHT22;8249;48.708;9.030;2023-09-08T13:56:57;40.40;69.00
16283;DHT22;8249;48.708;9.030;2023-09-08T13:59:26;40.40;68.80
16283;DHT22;8249;48.708;9.030;2023-09-08T14:01:54;40.50;69.00
16283;DHT22;8249;48.708;9.030;2023-09-08T14:04:21;40.40;68.20
16283;DHT22;8249;48.708;9.030;2023-09-08T14:06:48;40.10;67.10
16283;DHT22;8249;48.708;9.030;2023-09-08T14:09:17;40.10;67.10
16283;DHT22;8249;48.708;9.030;2023-09-08T14:11:44;39.80;66.70
16283;DHT22;8249;48.708;9.030;2023-09-08T14:14:11;39.60;68.50
16283;DHT22;8249;48.708;9.030;2023-09-08T14:16:38;39.70;69.60
16283;DHT22;8249;48.708;9.030;2023-09-08T14:19:05;40.00;67.90
16283;DHT22;8249;48.708;9.030;2023-09-08T14:21:32;39.50;66.90
16283;DHT22;8249;48.708;9.030;2023-09-08T14:23:59;39.40;67.60
16283;DHT22;8249;48.708;9.030;2023-09-08T14:26:27;39.50;68.10
16283;DHT22;8249;48.708;9.030;2023-09-08T14:28:54;39.50;68.80
16283;DHT22;8249;48.708;9.030;2023-09-08T14:31:21;39.50;68.90
16283;DHT22;8249;48.708;9.030;2023-09-08T14:33:48;39.90;67.40
16283;DHT22;8249;48.708;9.030;2023-09-08T14:36:17;39.60;66.20
16283;DHT22;8249;48.708;9.030;2023-09-08T14:38:44;39.40;67.10
16283;DHT22;8249;48.708;9.030;2023-09-08T14:41:11;39.40;67.40
16283;DHT22;8249;48.708;9.030;2023-09-08T14:43:40;38.50;67.80
16283;DHT22;8249;48.708;9.030;2023-09-08T14:46:06;38.60;68.30
16283;DHT22;8249;48.708;9.030;2023-09-08T14:48:33;38.60;67.40
16283;DHT22;8249;48.708;9.030;2023-09-08T14:51:02;38.70;67.30
16283;DHT22;8249;48.708;9.030;2023-09-08T14:53:29;38.60;68.50
16283;DHT22;8249;48.708;9.030;2023-09-08T14:55:57;38.70;68.30
16283;DHT22;8249;48.708;9.030;2023-09-08T14:58:25;38.70;67.80
16283;DHT22;8249;48.708;9.030;2023-09-08T15:00:58;38.60;67.00
16283;DHT22;8249;48.708;9.030;2023-09-08T15:03:30;38.80;67.10
16283;DHT22;8249;48.708;9.030;2023-09-08T15:05:57;38.50;67.60
16283;DHT22;8249;48.708;9.030;2023-09-08T15:08:24;38.20;68.10
16283;DHT22;8249;48.708;9.030;2023-09-08T15:10:51;38.00;68.10
16283;DHT22;8249;48.708;9.030;2023-09-08T15:13:18;37.70;69.40
16283;DHT22;8249;48.708;9.030;2023-09-08T15:15:45;37.40;69.30
16283;DHT22;8249;48.708;9.030;2023-09-08T15:18:14;37.30;68.60
16283;DHT22;8249;48.708;9.030;2023-09-08T15:20:50;37.00;69.10
16283;DHT22;8249;48.708;9.030;2023-09-08T15:23:17;36.80;69.60
16283;DHT22;8249;48.708;9.030;2023-09-08T15:25:50;36.60;69.20
16283;DHT22;8249;48.708;9.030;2023-09-08T15:28:17;36.70;69.30
16283;DHT22;8249;48.708;9.030;2023-09-08T15:30:47;36.60;69.00
16283;DHT22;8249;48.708;9.030;2023-09-08T15:33:16;36.40;69.50
16283;DHT22;8249;48.708;9.030;2023-09-08T15:35:43;36.20;70.80
16283;DHT22;8249;48.708;9.030;2023-09-08T15:38:10;36.00;71.00
16283;DHT22;8249;48.708;9.030;2023-09-08T15:40:38;35.70;71.50
16283;DHT22;8249;48.708;9.030;2023-09-08T15:43:05;35.20;71.30
16283;DHT22;8249;48.708;9.030;2023-09-08T15:45:32;34.80;72.90
16283;DHT22;8249;48.708;9.030;2023-09-08T15:47:59;34.60;73.40
16283;DHT22;8249;48.708;9.030;2023-09-08T15:50:29;34.40;73.50
16283;DHT22;8249;48.708;9.030;2023-09-08T15:52:56;34.10;74.30